Latest Weather Observations for Low Head

IDT60801

Issued at 8:33 pm EDT Tuesday 31 March 2015 (issued every 30 minutes, with the page automatically refreshed every 10 minutes)

About weather observations | Map of weather stations | Latest weather observations for TAS | Other Formats
Station Details ID: 091293 Name: LOW HEAD Lat: -41.05 Lon: 146.79 Height: 3.0 m
Data from the previous 72 hours. | See also: Recent months at Low Head
Date/Time
EDT
Temp
°C
App
Temp
°C
Dew
Point
Rel
Hum
%
Delta-T
°C
Wind Press
QNH
hPa
Press
MSL
hPa
Rain
since 9 am
mm
Dir
 
Spd
km/h
Gust
km/h
Spd
kts
Gust
kts
31/08:30pm 16.4 13.6 12.6 78 2.1 NW 19 20 10 11 1023.2 1023.2 0.0
31/08:00pm 16.4 13.5 12.4 77 2.2 NW 19 22 10 12 1023.1 1023.1 0.0
31/07:30pm 16.4 13.5 12.2 76 2.3 NW 19 22 10 12 1022.9 1022.9 0.0
31/07:00pm 16.4 13.2 12.0 75 2.4 NW 20 24 11 13 1022.7 1022.7 0.0
31/06:30pm 16.5 13.4 12.1 75 2.4 NW 20 24 11 13 1022.7 1022.7 0.0
31/06:00pm 17.3 14.4 12.4 73 2.7 NW 19 24 10 13 1022.5 1022.5 0.0
31/05:30pm 17.2 14.1 12.3 73 2.7 NW 20 26 11 14 1022.7 1022.7 0.0
31/05:00pm 17.9 14.9 12.4 70 3.0 NW 20 24 11 13 1022.8 1022.8 0.0
31/04:30pm 17.6 14.1 12.3 71 2.9 NW 22 30 12 16 1023.1 1023.1 0.0
31/04:00pm 17.9 14.4 12.1 69 3.2 WNW 22 28 12 15 1023.3 1023.3 0.0
31/03:30pm 18.0 14.7 12.7 71 2.9 WNW 22 28 12 15 1023.6 1023.6 0.0
31/03:00pm 17.6 13.4 12.3 71 2.9 WNW 26 33 14 18 1024.0 1024.0 0.0
31/02:30pm 18.2 15.5 12.9 71 3.0 WNW 19 22 10 12 1023.9 1023.9 0.0
31/02:00pm 18.1 15.4 12.8 71 3.0 W 19 22 10 12 1024.2 1024.2 0.0
31/01:30pm 17.3 15.4 11.8 70 3.0 W 13 17 7 9 1024.3 1024.3 0.0
31/01:00pm 17.1 15.6 11.8 71 2.9 W 11 15 6 8 1024.8 1024.8 0.0
31/12:30pm 16.4 14.7 11.3 72 2.7 W 11 15 6 8 1025.1 1025.1 0.0
31/12:00pm 16.2 14.5 11.2 72 2.7 W 11 13 6 7 1025.4 1025.4 0.0
31/11:30am 16.8 15.0 12.1 74 2.6 W 13 15 7 8 1025.6 1025.6 0.0
31/11:00am 15.6 13.5 11.2 75 2.3 W 13 15 7 8 1025.7 1025.7 0.0
31/10:30am 15.5 13.1 11.3 76 2.3 W 15 19 8 10 1025.9 1025.9 0.0
31/10:00am 14.9 11.6 10.9 77 2.1 W 19 20 10 11 1025.9 1025.9 0.0
31/09:30am 14.7 11.8 11.1 79 1.9 W 17 20 9 11 1025.8 1025.8 0.0
31/09:00am 14.3 10.9 10.7 79 1.9 W 19 22 10 12 1025.6 1025.6 0.2
31/08:30am 14.3 11.4 10.9 80 1.8 WNW 17 20 9 11 1025.5 1025.5 0.2
31/08:00am 14.2 10.9 10.8 80 1.8 WNW 19 24 10 13 1025.2 1025.2 0.2
31/07:30am 14.4 9.4 11.0 80 1.8 W 28 33 15 18 1024.9 1024.9 0.2
31/07:00am 14.4 10.2 11.0 80 1.8 W 24 30 13 16 1024.5 1024.5 0.2
31/06:30am 14.3 10.9 10.7 79 1.9 W 19 24 10 13 1024.1 1024.1 0.2
31/06:00am 14.4 10.9 10.8 79 1.9 W 20 24 11 13 1023.9 1023.9 0.2
31/05:30am 14.4 10.1 10.6 78 2.0 W 24 30 13 16 1023.7 1023.7 0.2
31/05:00am 14.4 10.5 10.8 79 1.9 WNW 22 28 12 15 1023.7 1023.7 0.2
31/04:30am 14.5 11.1 11.1 80 1.8 W 20 24 11 13 1023.5 1023.5 0.2
31/04:00am 14.2 11.9 10.6 79 1.9 WSW 13 17 7 9 1023.5 1023.5 0.2
31/03:30am 14.5 10.6 10.7 78 2.0 WSW 22 26 12 14 1023.4 1023.4 0.2
31/03:00am 14.9 10.3 10.9 77 2.1 WSW 26 32 14 17 1023.5 1023.5 0.2
31/02:30am 15.2 10.2 11.0 76 2.2 W 28 33 15 18 1023.6 1023.6 0.2
31/02:00am 15.3 9.9 10.9 75 2.3 W 30 35 16 19 1023.6 1023.6 0.2
31/01:30am 15.5 9.5 10.9 74 2.4 W 33 39 18 21 1023.5 1023.5 0.2
31/01:00am 15.5 10.1 10.9 74 2.4 W 30 33 16 18 1023.6 1023.6 0.2
31/12:30am 15.5 10.5 10.9 74 2.4 WNW 28 32 15 17 1023.7 1023.7 0.2
31/12:00am 15.6 10.6 10.8 73 2.5 W 28 33 15 18 1023.8 1023.8 0.2
 
Date/Time
EDT
Temp
°C
App
Temp
°C
Dew
Point
Rel
Hum
%
Delta-T
°C
Wind Press
QNH
hPa
Press
MSL
hPa
Rain
since 9 am
mm
Dir
 
Spd
km/h
Gust
km/h
Spd
kts
Gust
kts
30/11:30pm 15.9 10.2 11.3 74 2.5 W 32 37 17 20 1023.7 1023.7 0.2
30/11:00pm 16.1 10.2 11.3 73 2.6 W 33 39 18 21 1023.7 1023.7 0.2
30/10:30pm 16.2 9.2 11.4 73 2.6 W 39 44 21 24 1023.5 1023.5 0.2
30/10:00pm 16.4 9.2 12.0 75 2.4 W 41 48 22 26 1023.4 1023.4 0.2
30/09:30pm 16.8 9.7 12.3 75 2.5 W 41 48 22 26 1023.3 1023.3 0.2
30/09:00pm 17.0 10.4 12.7 76 2.4 WNW 39 46 21 25 1023.2 1023.2 0.2
30/08:30pm 17.1 10.5 12.6 75 2.5 WNW 39 48 21 26 1023.0 1023.0 0.2
30/08:00pm 17.2 9.9 12.7 75 2.5 WNW 43 48 23 26 1022.5 1022.5 0.2
30/07:30pm 17.2 10.6 12.5 74 2.6 WNW 39 46 21 25 1022.0 1022.0 0.2
30/07:00pm 17.6 11.1 12.9 74 2.6 WNW 39 44 21 24 1021.8 1021.8 0.2
30/06:30pm 18.0 11.1 12.9 72 2.9 WNW 41 46 22 25 1021.3 1021.3 0.2
30/06:00pm 18.4 12.2 12.6 69 3.2 WNW 37 44 20 24 1021.0 1021.0 0.2
30/05:30pm 18.4 11.9 12.8 70 3.1 WNW 39 46 21 25 1020.9 1020.9 0.2
30/05:00pm 18.4 11.9 13.0 71 3.0 WNW 39 48 21 26 1020.6 1020.6 0.2
30/04:30pm 18.6 11.8 13.0 70 3.2 WNW 41 48 22 26 1020.8 1020.8 0.2
30/04:00pm 19.0 13.7 13.2 69 3.3 WNW 33 39 18 21 1020.8 1020.8 0.2
30/03:30pm 19.0 12.8 12.7 67 3.5 WNW 37 44 20 24 1020.8 1020.8 0.2
30/03:00pm 18.6 11.6 12.6 68 3.3 WNW 41 48 22 26 1020.8 1020.8 0.2
30/02:30pm 18.6 12.4 12.6 68 3.4 WNW 37 44 20 24 1020.9 1020.9 0.2
30/02:00pm 19.1 13.9 13.3 69 3.3 WNW 33 41 18 22 1021.0 1021.0 0.2
30/01:30pm 18.5 12.4 13.1 71 3.0 WNW 37 46 20 25 1021.3 1021.3 0.2
30/01:00pm 18.3 13.1 14.4 78 2.2 WNW 35 44 19 24 1021.5 1021.5 0.2
30/12:30pm 18.0 12.5 14.7 81 1.9 WNW 37 46 20 25 1021.5 1021.5 0.2
30/12:00pm 17.7 12.1 15.5 87 1.3 WNW 39 44 21 24 1021.6 1021.6 0.2
30/11:30am 17.0 11.5 14.6 86 1.4 WNW 37 46 20 25 1021.7 1021.7 0.0
30/11:00am 17.5 12.5 15.0 85 1.4 WNW 35 43 19 23 1021.7 1021.7 0.0
30/10:30am 17.4 12.3 14.7 84 1.6 WNW 35 43 19 23 1021.6 1021.6 0.0
30/10:00am 17.2 12.1 14.7 85 1.4 WNW 35 41 19 22 1021.3 1021.3 0.0
30/09:30am 17.2 12.7 14.8 86 1.4 W 32 37 17 20 1021.1 1021.1 0.0
30/09:00am 16.9 11.7 14.5 86 1.4 WNW 35 39 19 21 1020.9 1020.9 0.0
30/08:30am 16.9 12.0 14.2 84 1.5 WNW 33 41 18 22 1020.7 1020.7 0.0
30/08:00am 16.7 11.3 14.0 84 1.5 WNW 35 41 19 22 1020.4 1020.4 0.0
30/07:30am 16.6 11.3 14.1 85 1.4 WNW 35 41 19 22 1020.1 1020.1 0.0
30/07:00am 16.8 11.2 14.4 86 1.4 WNW 37 41 20 22 1019.7 1019.7 0.0
30/06:30am 16.5 10.4 14.0 85 1.4 WNW 39 46 21 25 1019.4 1019.4 0.0
30/06:00am 16.6 11.3 14.1 85 1.4 WNW 35 46 19 25 1019.4 1019.4 0.0
30/05:30am 16.7 10.6 14.0 84 1.5 WNW 39 46 21 25 1019.4 1019.4 0.0
30/05:00am 16.8 10.7 14.1 84 1.5 W 39 46 21 25 1019.3 1019.3 0.0
30/04:30am 16.6 10.5 14.1 85 1.4 WNW 39 46 21 25 1019.3 1019.3 0.0
30/04:00am 16.7 9.8 14.0 84 1.5 WNW 43 50 23 27 1019.5 1019.5 0.0
30/03:30am 16.7 9.8 14.0 84 1.5 WNW 43 48 23 26 1019.5 1019.5 0.0
30/03:00am 17.0 11.0 14.5 85 1.4 WNW 39 46 21 25 1019.8 1019.8 0.0
30/02:30am 16.8 10.8 14.3 85 1.4 WNW 39 46 21 25 1019.9 1019.9 0.0
30/02:00am 17.0 11.4 14.5 85 1.4 WNW 37 44 20 24 1020.0 1020.0 0.0
30/01:30am 17.0 11.3 14.3 84 1.5 WNW 37 44 20 24 1020.1 1020.1 0.0
30/01:00am 16.9 10.5 14.2 84 1.5 WNW 41 48 22 26 1020.2 1020.2 0.0
30/12:30am 17.0 11.0 14.3 84 1.5 WNW 39 46 21 25 1020.2 1020.2 0.0
30/12:00am 17.0 11.3 14.3 84 1.5 WNW 37 44 20 24 1020.3 1020.3 0.0
 
Date/Time
EDT
Temp
°C
App
Temp
°C
Dew
Point
Rel
Hum
%
Delta-T
°C
Wind Press
QNH
hPa
Press
MSL
hPa
Rain
since 9 am
mm
Dir
 
Spd
km/h
Gust
km/h
Spd
kts
Gust
kts
29/11:30pm 17.0 11.3 14.3 84 1.5 WNW 37 43 20 23 1020.3 1020.3 0.0
29/11:00pm 17.0 11.3 14.3 84 1.5 WNW 37 46 20 25 1020.3 1020.3 0.0
29/10:30pm 17.0 11.3 14.3 84 1.5 WNW 37 43 20 23 1020.2 1020.2 0.0
29/10:00pm 16.9 11.6 14.2 84 1.5 WNW 35 43 19 23 1020.2 1020.2 0.0
29/09:30pm 16.9 11.6 14.2 84 1.5 WNW 35 43 19 23 1019.9 1019.9 0.0
29/09:00pm 17.1 11.9 14.4 84 1.5 WNW 35 43 19 23 1019.7 1019.7 0.0
29/08:30pm 17.1 11.4 14.2 83 1.7 WNW 37 43 20 23 1019.4 1019.4 0.0
29/08:00pm 17.2 11.1 14.1 82 1.8 WNW 39 46 21 25 1019.1 1019.1 0.0
29/07:30pm 17.1 10.6 14.0 82 1.8 WNW 41 46 22 25 1018.9 1018.9 0.0
29/07:00pm 17.1 10.9 13.8 81 1.9 WNW 39 48 21 26 1018.7 1018.7 0.0
29/06:30pm 17.5 10.9 13.8 79 2.1 WNW 41 48 22 26 1018.4 1018.4 0.0
29/06:00pm 17.7 10.5 13.8 78 2.2 WNW 44 50 24 27 1018.2 1018.2 0.0
29/05:30pm 18.0 11.1 14.1 78 2.2 WNW 43 50 23 27 1018.1 1018.1 0.0
29/05:00pm 17.7 10.6 13.4 76 2.4 WNW 43 50 23 27 1018.0 1018.0 0.0
29/04:30pm 18.4 11.5 13.9 75 2.6 WNW 43 48 23 26 1017.9 1017.9 0.0
29/04:00pm 18.1 11.0 13.4 74 2.7 WNW 43 48 23 26 1018.0 1018.0 0.0
29/03:30pm 18.0 11.3 13.3 74 2.7 WNW 41 46 22 25 1018.0 1018.0 0.0
29/03:00pm 17.8 11.3 12.9 73 2.7 WNW 39 46 21 25 1018.1 1018.1 0.0
29/02:30pm 18.1 11.6 13.0 72 2.9 WNW 39 48 21 26 1018.2 1018.2 0.0
29/02:00pm 18.2 12.5 13.1 72 2.9 WNW 35 44 19 24 1018.4 1018.4 0.0
29/01:30pm 18.3 12.4 13.6 74 2.7 NW 37 46 20 25 1018.6 1018.6 0.0
29/01:00pm 17.8 12.1 12.9 73 2.7 WNW 35 44 19 24 1018.8 1018.8 0.0
29/12:30pm 18.0 12.7 13.1 73 2.8 WNW 33 43 18 23 1019.0 1019.0 0.0
29/12:00pm 16.9 10.6 12.2 74 2.6 WNW 37 43 20 23 1019.0 1019.0 0.0
29/11:30am 16.4 9.9 12.8 79 2.0 WNW 39 50 21 27 1019.1 1019.1 0.0
29/11:00am 16.4 10.8 12.0 75 2.4 WNW 33 44 18 24 1019.1 1019.1 0.0
29/10:30am 16.6 10.4 11.5 72 2.8 WNW 35 43 19 23 1019.2 1019.2 0.0
29/10:00am 16.2 10.0 11.4 73 2.6 WNW 35 44 19 24 1019.0 1019.0 0.0
29/09:30am 16.0 9.0 11.2 73 2.6 WNW 39 44 21 24 1019.0 1019.0 0.0
29/09:00am 15.6 9.0 11.4 76 2.3 W 37 43 20 23 1018.9 1018.9 0.0
29/08:30am 15.4 9.2 11.4 77 2.1 W 35 41 19 22 1018.8 1018.8 0.0
29/08:00am 15.4 9.7 11.8 79 1.9 W 33 39 18 21 1018.7 1018.7 0.0
29/07:30am 15.5 9.0 11.7 78 2.1 W 37 46 20 25 1018.5 1018.5 0.0
29/07:00am 15.2 9.1 11.6 79 1.9 W 35 43 19 23 1018.4 1018.4 0.0
29/06:30am 15.4 8.3 11.0 75 2.3 W 39 46 21 25 1018.3 1018.3 0.0
29/06:00am 15.2 8.0 10.6 74 2.4 W 39 48 21 26 1018.1 1018.1 0.0
29/05:30am 15.1 7.1 10.3 73 2.5 W 43 52 23 28 1017.8 1017.8 0.0
29/05:00am 15.4 7.3 10.6 73 2.5 W 44 56 24 30 1018.1 1018.1 0.0
29/04:30am 15.0 6.9 10.6 75 2.3 W 44 52 24 28 1017.7 1017.7 0.0
29/04:00am 14.9 7.4 10.7 76 2.2 W 41 48 22 26 1017.8 1017.8 0.0
29/03:30am 14.7 7.4 10.3 75 2.3 W 39 46 21 25 1017.9 1017.9 0.0
29/03:00am 14.8 7.2 10.6 76 2.2 W 41 48 22 26 1018.3 1018.3 0.0
29/02:30am 14.5 6.8 10.3 76 2.2 W 41 50 22 27 1018.3 1018.3 0.0
29/02:00am 14.1 6.3 9.9 76 2.2 W 41 50 22 27 1018.6 1018.6 0.0
29/01:30am 14.0 5.7 10.0 77 2.1 W 44 54 24 29 1018.8 1018.8 0.0
29/01:00am 13.9 5.3 10.3 79 1.9 W 46 57 25 31 1018.8 1018.8 0.0
29/12:30am 14.0 6.5 10.8 81 1.7 WNW 41 50 22 27 1018.9 1018.9 0.0
29/12:00am 14.1 6.0 10.9 81 1.7 WNW 44 50 24 27 1019.3 1019.3 0.0
 
Date/Time
EDT
Temp
°C
App
Temp
°C
Dew
Point
Rel
Hum
%
Delta-T
°C
Wind Press
QNH
hPa
Press
MSL
hPa
Rain
since 9 am
mm
Dir
 
Spd
km/h
Gust
km/h
Spd
kts
Gust
kts
28/11:30pm 14.2 6.7 11.0 81 1.7 WNW 41 46 22 25 1019.4 1019.4 0.0
28/11:00pm 14.6 7.6 11.2 80 1.8 WNW 39 46 21 25 1019.4 1019.4 0.0
28/10:30pm 14.7 8.0 10.9 78 2.0 WNW 37 43 20 23 1019.4 1019.4 0.0
28/10:00pm 15.1 8.1 11.3 78 2.0 WNW 39 43 21 23 1019.4 1019.4 0.0
28/09:30pm 15.4 8.9 11.6 78 2.0 WNW 37 44 20 24 1019.5 1019.5 0.0
28/09:00pm 15.5 8.2 11.7 78 2.0 WNW 41 48 22 26 1019.2 1019.2 0.0

Other Formats:

Comma delimited format used in spreadsheet applications
http://www.bom.gov.au/fwo/IDT60801/IDT60801.95964.axf

JavaScript Object Notation format (JSON) in row-major order
http://www.bom.gov.au/fwo/IDT60801/IDT60801.95964.json